sensor_id;sensor_type;location;lat;lon;timestamp;P1;durP1;ratioP1;P2;durP2;ratioP2
15254;SDS011;7730;49.610;11.136;2023-05-16T00:01:42;7.00;;;3.90;;
15254;SDS011;7730;49.610;11.136;2023-05-16T00:04:09;7.45;;;3.90;;
15254;SDS011;7730;49.610;11.136;2023-05-16T00:06:36;8.90;;;4.25;;
15254;SDS011;7730;49.610;11.136;2023-05-16T00:09:03;7.72;;;4.00;;
15254;SDS011;7730;49.610;11.136;2023-05-16T00:11:30;8.57;;;4.03;;
15254;SDS011;7730;49.610;11.136;2023-05-16T00:13:57;9.50;;;4.10;;
15254;SDS011;7730;49.610;11.136;2023-05-16T00:16:25;7.68;;;4.13;;
15254;SDS011;7730;49.610;11.136;2023-05-16T00:18:55;7.43;;;4.15;;
15254;SDS011;7730;49.610;11.136;2023-05-16T00:21:23;8.63;;;4.18;;
15254;SDS011;7730;49.610;11.136;2023-05-16T00:23:50;7.30;;;4.18;;
15254;SDS011;7730;49.610;11.136;2023-05-16T00:26:17;9.50;;;4.40;;
15254;SDS011;7730;49.610;11.136;2023-05-16T00:28:45;8.75;;;4.28;;
15254;SDS011;7730;49.610;11.136;2023-05-16T00:31:12;8.38;;;4.30;;
15254;SDS011;7730;49.610;11.136;2023-05-16T00:33:39;9.57;;;4.30;;
15254;SDS011;7730;49.610;11.136;2023-05-16T00:36:08;9.90;;;4.68;;
15254;SDS011;7730;49.610;11.136;2023-05-16T00:38:35;8.43;;;4.40;;
15254;SDS011;7730;49.610;11.136;2023-05-16T00:41:02;7.93;;;4.32;;
15254;SDS011;7730;49.610;11.136;2023-05-16T00:43:29;7.82;;;4.38;;
15254;SDS011;7730;49.610;11.136;2023-05-16T00:45:56;8.27;;;4.45;;
15254;SDS011;7730;49.610;11.136;2023-05-16T00:48:24;8.93;;;4.50;;
15254;SDS011;7730;49.610;11.136;2023-05-16T00:50:51;8.25;;;4.45;;
15254;SDS011;7730;49.610;11.136;2023-05-16T00:53:20;8.02;;;4.55;;
15254;SDS011;7730;49.610;11.136;2023-05-16T00:55:47;7.88;;;4.35;;
15254;SDS011;7730;49.610;11.136;2023-05-16T00:58:14;7.85;;;4.10;;
15254;SDS011;7730;49.610;11.136;2023-05-16T01:00:41;7.55;;;4.30;;
15254;SDS011;7730;49.610;11.136;2023-05-16T01:03:11;9.50;;;4.32;;
15254;SDS011;7730;49.610;11.136;2023-05-16T01:05:39;8.77;;;4.65;;
15254;SDS011;7730;49.610;11.136;2023-05-16T01:08:06;10.35;;;4.50;;
15254;SDS011;7730;49.610;11.136;2023-05-16T01:10:37;8.38;;;4.32;;
15254;SDS011;7730;49.610;11.136;2023-05-16T01:13:08;9.02;;;4.60;;
15254;SDS011;7730;49.610;11.136;2023-05-16T01:15:38;9.20;;;4.50;;
15254;SDS011;7730;49.610;11.136;2023-05-16T01:18:09;8.05;;;4.40;;
15254;SDS011;7730;49.610;11.136;2023-05-16T01:20:39;9.15;;;4.80;;
15254;SDS011;7730;49.610;11.136;2023-05-16T01:23:16;9.70;;;4.80;;
15254;SDS011;7730;49.610;11.136;2023-05-16T01:25:50;11.07;;;4.85;;
15254;SDS011;7730;49.610;11.136;2023-05-16T01:28:23;7.88;;;4.50;;
15254;SDS011;7730;49.610;11.136;2023-05-16T01:30:51;9.48;;;4.80;;
15254;SDS011;7730;49.610;11.136;2023-05-16T01:33:18;9.48;;;4.85;;
15254;SDS011;7730;49.610;11.136;2023-05-16T01:35:46;7.70;;;4.40;;
15254;SDS011;7730;49.610;11.136;2023-05-16T01:38:20;9.48;;;5.05;;
15254;SDS011;7730;49.610;11.136;2023-05-16T01:40:50;9.35;;;4.93;;
15254;SDS011;7730;49.610;11.136;2023-05-16T01:43:20;9.15;;;5.10;;
15254;SDS011;7730;49.610;11.136;2023-05-16T01:45:52;11.10;;;5.00;;
15254;SDS011;7730;49.610;11.136;2023-05-16T01:48:21;9.80;;;4.78;;
15254;SDS011;7730;49.610;11.136;2023-05-16T01:50:54;8.55;;;4.90;;
15254;SDS011;7730;49.610;11.136;2023-05-16T01:53:22;9.70;;;4.80;;
15254;SDS011;7730;49.610;11.136;2023-05-16T01:55:51;9.52;;;5.18;;
15254;SDS011;7730;49.610;11.136;2023-05-16T01:58:19;9.93;;;5.03;;
15254;SDS011;7730;49.610;11.136;2023-05-16T02:00:46;9.73;;;5.40;;
15254;SDS011;7730;49.610;11.136;2023-05-16T02:03:15;13.20;;;6.38;;
15254;SDS011;7730;49.610;11.136;2023-05-16T02:05:42;14.48;;;8.30;;
15254;SDS011;7730;49.610;11.136;2023-05-16T02:08:09;15.18;;;9.05;;
15254;SDS011;7730;49.610;11.136;2023-05-16T02:10:36;15.60;;;9.55;;
15254;SDS011;7730;49.610;11.136;2023-05-16T02:13:05;9.35;;;5.03;;
15254;SDS011;7730;49.610;11.136;2023-05-16T02:15:32;8.68;;;4.63;;
15254;SDS011;7730;49.610;11.136;2023-05-16T02:17:59;7.35;;;4.13;;
15254;SDS011;7730;49.610;11.136;2023-05-16T02:20:27;8.43;;;4.50;;
15254;SDS011;7730;49.610;11.136;2023-05-16T02:22:54;9.48;;;4.50;;
15254;SDS011;7730;49.610;11.136;2023-05-16T02:25:21;8.38;;;4.43;;
15254;SDS011;7730;49.610;11.136;2023-05-16T02:27:48;9.10;;;4.60;;
15254;SDS011;7730;49.610;11.136;2023-05-16T02:30:15;6.55;;;3.95;;
15254;SDS011;7730;49.610;11.136;2023-05-16T02:32:42;8.90;;;4.55;;
15254;SDS011;7730;49.610;11.136;2023-05-16T02:35:10;9.65;;;4.70;;
15254;SDS011;7730;49.610;11.136;2023-05-16T02:37:38;11.02;;;4.82;;
15254;SDS011;7730;49.610;11.136;2023-05-16T02:40:06;7.22;;;4.65;;
15254;SDS011;7730;49.610;11.136;2023-05-16T02:42:33;10.85;;;4.53;;
15254;SDS011;7730;49.610;11.136;2023-05-16T02:45:00;8.77;;;4.68;;
15254;SDS011;7730;49.610;11.136;2023-05-16T02:47:27;8.75;;;4.60;;
15254;SDS011;7730;49.610;11.136;2023-05-16T02:49:54;9.60;;;4.50;;
15254;SDS011;7730;49.610;11.136;2023-05-16T02:52:21;8.30;;;4.68;;
15254;SDS011;7730;49.610;11.136;2023-05-16T02:54:49;8.75;;;4.60;;
15254;SDS011;7730;49.610;11.136;2023-05-16T02:57:16;8.65;;;4.50;;
15254;SDS011;7730;49.610;11.136;2023-05-16T02:59:43;9.25;;;4.55;;
15254;SDS011;7730;49.610;11.136;2023-05-16T03:02:10;8.75;;;4.43;;
15254;SDS011;7730;49.610;11.136;2023-05-16T03:04:37;7.95;;;4.57;;
15254;SDS011;7730;49.610;11.136;2023-05-16T03:07:04;8.45;;;4.50;;
15254;SDS011;7730;49.610;11.136;2023-05-16T03:09:31;10.27;;;4.53;;
15254;SDS011;7730;49.610;11.136;2023-05-16T03:12:00;10.55;;;4.65;;
15254;SDS011;7730;49.610;11.136;2023-05-16T03:14:27;8.95;;;4.28;;
15254;SDS011;7730;49.610;11.136;2023-05-16T03:16:53;9.10;;;4.80;;
15254;SDS011;7730;49.610;11.136;2023-05-16T03:19:20;10.10;;;4.88;;
15254;SDS011;7730;49.610;11.136;2023-05-16T03:21:48;9.93;;;4.90;;
15254;SDS011;7730;49.610;11.136;2023-05-16T03:24:15;8.52;;;4.78;;
15254;SDS011;7730;49.610;11.136;2023-05-16T03:26:42;9.48;;;5.10;;
15254;SDS011;7730;49.610;11.136;2023-05-16T03:29:10;9.88;;;5.18;;
15254;SDS011;7730;49.610;11.136;2023-05-16T03:31:37;8.80;;;5.00;;
15254;SDS011;7730;49.610;11.136;2023-05-16T03:34:06;10.27;;;5.13;;
15254;SDS011;7730;49.610;11.136;2023-05-16T03:36:33;9.20;;;5.07;;
15254;SDS011;7730;49.610;11.136;2023-05-16T03:39:00;9.38;;;4.78;;
15254;SDS011;7730;49.610;11.136;2023-05-16T03:41:27;8.32;;;4.80;;
15254;SDS011;7730;49.610;11.136;2023-05-16T03:43:54;12.60;;;5.10;;
15254;SDS011;7730;49.610;11.136;2023-05-16T03:46:22;9.45;;;5.00;;
15254;SDS011;7730;49.610;11.136;2023-05-16T03:48:49;10.38;;;4.97;;
15254;SDS011;7730;49.610;11.136;2023-05-16T03:51:16;11.80;;;4.80;;
15254;SDS011;7730;49.610;11.136;2023-05-16T03:53:43;11.05;;;5.38;;
15254;SDS011;7730;49.610;11.136;2023-05-16T03:56:10;11.55;;;5.13;;
15254;SDS011;7730;49.610;11.136;2023-05-16T03:58:37;10.43;;;5.18;;
15254;SDS011;7730;49.610;11.136;2023-05-16T04:01:04;9.68;;;4.90;;
15254;SDS011;7730;49.610;11.136;2023-05-16T04:03:33;10.85;;;4.95;;
15254;SDS011;7730;49.610;11.136;2023-05-16T04:06:00;8.75;;;4.60;;
15254;SDS011;7730;49.610;11.136;2023-05-16T04:08:27;9.63;;;5.00;;
15254;SDS011;7730;49.610;11.136;2023-05-16T04:10:54;10.90;;;5.05;;
15254;SDS011;7730;49.610;11.136;2023-05-16T04:13:21;11.05;;;5.20;;
15254;SDS011;7730;49.610;11.136;2023-05-16T04:15:48;10.82;;;5.10;;
15254;SDS011;7730;49.610;11.136;2023-05-16T04:18:15;9.38;;;5.20;;
15254;SDS011;7730;49.610;11.136;2023-05-16T04:20:43;11.30;;;5.18;;
15254;SDS011;7730;49.610;11.136;2023-05-16T04:23:11;10.55;;;5.47;;
15254;SDS011;7730;49.610;11.136;2023-05-16T04:25:39;10.80;;;5.25;;
15254;SDS011;7730;49.610;11.136;2023-05-16T04:28:06;10.80;;;5.43;;
15254;SDS011;7730;49.610;11.136;2023-05-16T04:30:34;12.60;;;5.45;;
15254;SDS011;7730;49.610;11.136;2023-05-16T04:33:01;11.32;;;5.57;;
15254;SDS011;7730;49.610;11.136;2023-05-16T04:35:28;11.73;;;5.90;;
15254;SDS011;7730;49.610;11.136;2023-05-16T04:37:56;12.48;;;6.20;;
15254;SDS011;7730;49.610;11.136;2023-05-16T04:40:23;12.88;;;5.95;;
15254;SDS011;7730;49.610;11.136;2023-05-16T04:42:51;10.88;;;5.90;;
15254;SDS011;7730;49.610;11.136;2023-05-16T04:45:19;11.18;;;6.10;;
15254;SDS011;7730;49.610;11.136;2023-05-16T04:47:46;12.27;;;5.88;;
15254;SDS011;7730;49.610;11.136;2023-05-16T04:50:13;11.82;;;6.30;;
15254;SDS011;7730;49.610;11.136;2023-05-16T04:52:42;12.68;;;6.10;;
15254;SDS011;7730;49.610;11.136;2023-05-16T04:55:10;12.18;;;6.38;;
15254;SDS011;7730;49.610;11.136;2023-05-16T04:57:37;14.27;;;6.30;;
15254;SDS011;7730;49.610;11.136;2023-05-16T05:00:05;14.43;;;6.20;;
15254;SDS011;7730;49.610;11.136;2023-05-16T05:02:34;12.32;;;6.22;;
15254;SDS011;7730;49.610;11.136;2023-05-16T05:05:01;13.07;;;6.10;;
15254;SDS011;7730;49.610;11.136;2023-05-16T05:07:29;11.18;;;6.05;;
15254;SDS011;7730;49.610;11.136;2023-05-16T05:09:56;13.65;;;6.90;;
15254;SDS011;7730;49.610;11.136;2023-05-16T05:12:24;14.45;;;6.80;;
15254;SDS011;7730;49.610;11.136;2023-05-16T05:14:52;14.02;;;6.85;;
15254;SDS011;7730;49.610;11.136;2023-05-16T05:17:19;16.73;;;7.13;;
15254;SDS011;7730;49.610;11.136;2023-05-16T05:19:46;13.73;;;7.20;;
15254;SDS011;7730;49.610;11.136;2023-05-16T05:22:13;14.30;;;7.07;;
15254;SDS011;7730;49.610;11.136;2023-05-16T05:24:40;13.63;;;7.15;;
15254;SDS011;7730;49.610;11.136;2023-05-16T05:27:07;13.77;;;7.05;;
15254;SDS011;7730;49.610;11.136;2023-05-16T05:29:36;14.35;;;7.47;;
15254;SDS011;7730;49.610;11.136;2023-05-16T05:32:03;20.20;;;7.55;;
15254;SDS011;7730;49.610;11.136;2023-05-16T05:34:30;16.15;;;7.25;;
15254;SDS011;7730;49.610;11.136;2023-05-16T05:36:57;16.35;;;7.55;;
15254;SDS011;7730;49.610;11.136;2023-05-16T05:39:24;17.52;;;7.90;;
15254;SDS011;7730;49.610;11.136;2023-05-16T05:41:51;14.43;;;7.50;;
15254;SDS011;7730;49.610;11.136;2023-05-16T05:44:18;12.27;;;6.90;;
15254;SDS011;7730;49.610;11.136;2023-05-16T05:46:46;13.93;;;7.38;;
15254;SDS011;7730;49.610;11.136;2023-05-16T05:49:13;15.55;;;7.65;;
15254;SDS011;7730;49.610;11.136;2023-05-16T05:51:41;13.50;;;7.13;;
15254;SDS011;7730;49.610;11.136;2023-05-16T05:54:08;13.43;;;6.93;;
15254;SDS011;7730;49.610;11.136;2023-05-16T05:56:35;14.07;;;6.53;;
15254;SDS011;7730;49.610;11.136;2023-05-16T05:59:02;11.20;;;5.65;;
15254;SDS011;7730;49.610;11.136;2023-05-16T06:01:29;11.23;;;5.65;;
15254;SDS011;7730;49.610;11.136;2023-05-16T06:03:57;10.38;;;5.22;;
15254;SDS011;7730;49.610;11.136;2023-05-16T06:06:24;9.35;;;5.18;;
15254;SDS011;7730;49.610;11.136;2023-05-16T06:08:51;10.70;;;5.20;;
15254;SDS011;7730;49.610;11.136;2023-05-16T06:11:18;9.77;;;5.25;;
15254;SDS011;7730;49.610;11.136;2023-05-16T06:13:45;10.20;;;5.40;;
15254;SDS011;7730;49.610;11.136;2023-05-16T06:16:12;11.93;;;5.60;;
15254;SDS011;7730;49.610;11.136;2023-05-16T06:18:39;10.95;;;5.53;;
15254;SDS011;7730;49.610;11.136;2023-05-16T06:21:08;11.05;;;5.72;;
15254;SDS011;7730;49.610;11.136;2023-05-16T06:23:35;12.32;;;6.00;;
15254;SDS011;7730;49.610;11.136;2023-05-16T06:26:02;12.20;;;5.97;;
15254;SDS011;7730;49.610;11.136;2023-05-16T06:28:29;12.77;;;6.63;;
15254;SDS011;7730;49.610;11.136;2023-05-16T06:30:56;13.43;;;6.40;;
15254;SDS011;7730;49.610;11.136;2023-05-16T06:33:23;12.32;;;6.30;;
15254;SDS011;7730;49.610;11.136;2023-05-16T06:35:50;12.75;;;6.15;;
15254;SDS011;7730;49.610;11.136;2023-05-16T06:38:19;11.75;;;6.22;;
15254;SDS011;7730;49.610;11.136;2023-05-16T06:40:45;12.40;;;6.63;;
15254;SDS011;7730;49.610;11.136;2023-05-16T06:43:13;14.48;;;6.78;;
15254;SDS011;7730;49.610;11.136;2023-05-16T06:45:40;13.45;;;6.50;;
15254;SDS011;7730;49.610;11.136;2023-05-16T06:48:07;13.15;;;6.90;;
15254;SDS011;7730;49.610;11.136;2023-05-16T06:50:34;14.68;;;6.95;;
15254;SDS011;7730;49.610;11.136;2023-05-16T06:53:01;13.10;;;6.65;;
15254;SDS011;7730;49.610;11.136;2023-05-16T06:55:30;12.23;;;6.78;;
15254;SDS011;7730;49.610;11.136;2023-05-16T06:57:57;13.48;;;7.03;;
15254;SDS011;7730;49.610;11.136;2023-05-16T07:00:24;13.63;;;6.57;;
15254;SDS011;7730;49.610;11.136;2023-05-16T07:02:51;13.15;;;7.30;;
15254;SDS011;7730;49.610;11.136;2023-05-16T07:05:18;12.70;;;6.90;;
15254;SDS011;7730;49.610;11.136;2023-05-16T07:07:45;15.18;;;7.60;;
15254;SDS011;7730;49.610;11.136;2023-05-16T07:10:13;12.85;;;6.88;;
15254;SDS011;7730;49.610;11.136;2023-05-16T07:12:42;13.35;;;7.35;;
15254;SDS011;7730;49.610;11.136;2023-05-16T07:15:09;14.18;;;6.82;;
15254;SDS011;7730;49.610;11.136;2023-05-16T07:17:37;13.20;;;7.05;;
15254;SDS011;7730;49.610;11.136;2023-05-16T07:20:04;13.18;;;6.97;;
15254;SDS011;7730;49.610;11.136;2023-05-16T07:22:32;13.20;;;7.00;;
15254;SDS011;7730;49.610;11.136;2023-05-16T07:24:59;13.85;;;7.18;;
15254;SDS011;7730;49.610;11.136;2023-05-16T07:27:26;13.25;;;7.25;;
15254;SDS011;7730;49.610;11.136;2023-05-16T07:29:54;14.35;;;7.57;;
15254;SDS011;7730;49.610;11.136;2023-05-16T07:32:21;13.43;;;7.20;;
15254;SDS011;7730;49.610;11.136;2023-05-16T07:34:48;13.18;;;7.53;;
15254;SDS011;7730;49.610;11.136;2023-05-16T07:37:16;14.32;;;7.60;;
15254;SDS011;7730;49.610;11.136;2023-05-16T07:39:44;14.15;;;7.78;;
15254;SDS011;7730;49.610;11.136;2023-05-16T07:42:11;14.05;;;7.63;;
15254;SDS011;7730;49.610;11.136;2023-05-16T07:44:38;12.45;;;7.30;;
15254;SDS011;7730;49.610;11.136;2023-05-16T07:47:06;13.50;;;7.80;;
15254;SDS011;7730;49.610;11.136;2023-05-16T07:49:33;13.00;;;7.15;;
15254;SDS011;7730;49.610;11.136;2023-05-16T07:52:00;13.80;;;7.50;;
15254;SDS011;7730;49.610;11.136;2023-05-16T07:54:27;13.98;;;7.70;;
15254;SDS011;7730;49.610;11.136;2023-05-16T07:56:55;12.98;;;7.55;;
15254;SDS011;7730;49.610;11.136;2023-05-16T07:59:22;13.25;;;7.40;;
15254;SDS011;7730;49.610;11.136;2023-05-16T08:01:49;15.48;;;7.28;;
15254;SDS011;7730;49.610;11.136;2023-05-16T08:04:17;12.80;;;7.05;;
15254;SDS011;7730;49.610;11.136;2023-05-16T08:06:44;15.23;;;7.35;;
15254;SDS011;7730;49.610;11.136;2023-05-16T08:09:11;13.52;;;7.47;;
15254;SDS011;7730;49.610;11.136;2023-05-16T08:11:38;13.45;;;6.80;;
15254;SDS011;7730;49.610;11.136;2023-05-16T08:14:09;12.75;;;6.93;;
15254;SDS011;7730;49.610;11.136;2023-05-16T08:16:36;12.60;;;6.90;;
15254;SDS011;7730;49.610;11.136;2023-05-16T08:19:03;12.27;;;6.97;;
15254;SDS011;7730;49.610;11.136;2023-05-16T08:21:32;12.95;;;6.78;;
15254;SDS011;7730;49.610;11.136;2023-05-16T08:23:59;13.50;;;6.35;;
15254;SDS011;7730;49.610;11.136;2023-05-16T08:26:26;12.98;;;6.38;;
15254;SDS011;7730;49.610;11.136;2023-05-16T08:28:53;11.63;;;5.82;;
15254;SDS011;7730;49.610;11.136;2023-05-16T08:31:20;11.57;;;5.95;;
15254;SDS011;7730;49.610;11.136;2023-05-16T08:33:47;12.20;;;6.32;;
15254;SDS011;7730;49.610;11.136;2023-05-16T08:36:14;12.73;;;6.88;;
15254;SDS011;7730;49.610;11.136;2023-05-16T08:38:45;13.23;;;6.85;;
15254;SDS011;7730;49.610;11.136;2023-05-16T08:41:12;13.68;;;6.38;;
15254;SDS011;7730;49.610;11.136;2023-05-16T08:43:39;10.82;;;5.50;;
15254;SDS011;7730;49.610;11.136;2023-05-16T08:46:06;10.85;;;5.40;;
15254;SDS011;7730;49.610;11.136;2023-05-16T08:48:33;13.35;;;6.40;;
15254;SDS011;7730;49.610;11.136;2023-05-16T08:51:00;13.00;;;6.82;;
15254;SDS011;7730;49.610;11.136;2023-05-16T08:53:30;13.38;;;6.68;;
15254;SDS011;7730;49.610;11.136;2023-05-16T08:55:59;12.13;;;6.68;;
15254;SDS011;7730;49.610;11.136;2023-05-16T08:58:26;13.07;;;7.20;;
15254;SDS011;7730;49.610;11.136;2023-05-16T09:00:54;14.80;;;8.18;;
15254;SDS011;7730;49.610;11.136;2023-05-16T09:03:21;13.45;;;7.43;;
15254;SDS011;7730;49.610;11.136;2023-05-16T09:05:49;14.13;;;7.53;;
15254;SDS011;7730;49.610;11.136;2023-05-16T09:08:16;13.25;;;7.40;;
15254;SDS011;7730;49.610;11.136;2023-05-16T09:10:44;12.77;;;7.55;;
15254;SDS011;7730;49.610;11.136;2023-05-16T09:13:12;14.80;;;7.88;;
15254;SDS011;7730;49.610;11.136;2023-05-16T09:15:39;14.75;;;7.60;;
15254;SDS011;7730;49.610;11.136;2023-05-16T09:18:10;14.38;;;7.72;;
15254;SDS011;7730;49.610;11.136;2023-05-16T09:20:37;13.65;;;7.70;;
15254;SDS011;7730;49.610;11.136;2023-05-16T09:23:10;14.00;;;7.75;;
15254;SDS011;7730;49.610;11.136;2023-05-16T09:25:38;13.40;;;7.80;;
15254;SDS011;7730;49.610;11.136;2023-05-16T09:28:09;13.77;;;8.20;;
15254;SDS011;7730;49.610;11.136;2023-05-16T09:30:37;14.30;;;8.32;;
15254;SDS011;7730;49.610;11.136;2023-05-16T09:33:06;13.60;;;8.20;;
15254;SDS011;7730;49.610;11.136;2023-05-16T09:35:33;14.77;;;7.90;;
15254;SDS011;7730;49.610;11.136;2023-05-16T09:38:00;15.80;;;7.90;;
15254;SDS011;7730;49.610;11.136;2023-05-16T09:40:27;13.75;;;8.40;;
15254;SDS011;7730;49.610;11.136;2023-05-16T09:43:00;14.48;;;8.43;;
15254;SDS011;7730;49.610;11.136;2023-05-16T09:45:29;14.60;;;8.10;;
15254;SDS011;7730;49.610;11.136;2023-05-16T09:47:59;14.18;;;8.13;;
15254;SDS011;7730;49.610;11.136;2023-05-16T09:50:26;14.85;;;8.40;;
15254;SDS011;7730;49.610;11.136;2023-05-16T09:52:53;14.23;;;8.55;;
15254;SDS011;7730;49.610;11.136;2023-05-16T09:55:21;14.45;;;8.23;;
15254;SDS011;7730;49.610;11.136;2023-05-16T09:57:48;14.05;;;8.02;;
15254;SDS011;7730;49.610;11.136;2023-05-16T10:00:16;13.88;;;7.68;;
15254;SDS011;7730;49.610;11.136;2023-05-16T10:02:43;14.80;;;7.72;;
15254;SDS011;7730;49.610;11.136;2023-05-16T10:05:12;14.18;;;7.90;;
15254;SDS011;7730;49.610;11.136;2023-05-16T10:07:40;14.60;;;7.50;;
15254;SDS011;7730;49.610;11.136;2023-05-16T10:10:07;14.98;;;8.02;;
15254;SDS011;7730;49.610;11.136;2023-05-16T10:12:35;12.85;;;7.82;;
15254;SDS011;7730;49.610;11.136;2023-05-16T10:15:03;13.57;;;7.55;;
15254;SDS011;7730;49.610;11.136;2023-05-16T10:17:32;12.48;;;7.00;;
15254;SDS011;7730;49.610;11.136;2023-05-16T10:20:00;12.98;;;7.13;;
15254;SDS011;7730;49.610;11.136;2023-05-16T10:22:31;12.32;;;7.10;;
15254;SDS011;7730;49.610;11.136;2023-05-16T10:24:59;12.43;;;6.70;;
15254;SDS011;7730;49.610;11.136;2023-05-16T10:27:30;14.52;;;6.70;;
15254;SDS011;7730;49.610;11.136;2023-05-16T10:29:57;12.52;;;6.72;;
15254;SDS011;7730;49.610;11.136;2023-05-16T10:32:24;14.00;;;6.72;;
15254;SDS011;7730;49.610;11.136;2023-05-16T10:34:51;12.95;;;6.00;;
15254;SDS011;7730;49.610;11.136;2023-05-16T10:37:20;12.00;;;5.90;;
15254;SDS011;7730;49.610;11.136;2023-05-16T10:39:50;11.32;;;5.80;;
15254;SDS011;7730;49.610;11.136;2023-05-16T10:42:17;13.23;;;6.50;;
15254;SDS011;7730;49.610;11.136;2023-05-16T10:44:44;12.73;;;6.32;;
15254;SDS011;7730;49.610;11.136;2023-05-16T10:47:11;12.10;;;6.43;;
15254;SDS011;7730;49.610;11.136;2023-05-16T10:49:39;13.00;;;6.22;;
15254;SDS011;7730;49.610;11.136;2023-05-16T10:52:07;14.80;;;6.55;;
15254;SDS011;7730;49.610;11.136;2023-05-16T10:54:34;12.07;;;5.60;;
15254;SDS011;7730;49.610;11.136;2023-05-16T10:57:07;12.65;;;5.55;;
15254;SDS011;7730;49.610;11.136;2023-05-16T10:59:39;10.35;;;5.22;;
15254;SDS011;7730;49.610;11.136;2023-05-16T11:02:20;9.05;;;4.82;;
15254;SDS011;7730;49.610;11.136;2023-05-16T11:04:47;9.20;;;4.80;;
15254;SDS011;7730;49.610;11.136;2023-05-16T11:07:16;9.80;;;4.60;;
15254;SDS011;7730;49.610;11.136;2023-05-16T11:09:43;9.05;;;4.70;;
15254;SDS011;7730;49.610;11.136;2023-05-16T11:12:12;9.63;;;4.72;;
15254;SDS011;7730;49.610;11.136;2023-05-16T11:14:40;9.65;;;4.60;;
15254;SDS011;7730;49.610;11.136;2023-05-16T11:17:09;8.07;;;4.30;;
15254;SDS011;7730;49.610;11.136;2023-05-16T11:19:41;9.23;;;4.30;;
15254;SDS011;7730;49.610;11.136;2023-05-16T11:22:10;8.63;;;4.10;;
15254;SDS011;7730;49.610;11.136;2023-05-16T11:24:47;7.93;;;4.00;;
15254;SDS011;7730;49.610;11.136;2023-05-16T11:27:19;8.30;;;4.03;;
15254;SDS011;7730;49.610;11.136;2023-05-16T11:29:46;6.75;;;3.97;;
15254;SDS011;7730;49.610;11.136;2023-05-16T11:32:13;8.05;;;4.05;;
15254;SDS011;7730;49.610;11.136;2023-05-16T11:34:44;9.35;;;4.20;;
15254;SDS011;7730;49.610;11.136;2023-05-16T11:37:12;7.38;;;3.90;;
15254;SDS011;7730;49.610;11.136;2023-05-16T11:39:39;9.32;;;4.10;;
15254;SDS011;7730;49.610;11.136;2023-05-16T11:42:07;8.48;;;4.00;;
15254;SDS011;7730;49.610;11.136;2023-05-16T11:44:36;8.95;;;4.25;;
15254;SDS011;7730;49.610;11.136;2023-05-16T11:47:03;8.95;;;4.00;;
15254;SDS011;7730;49.610;11.136;2023-05-16T11:49:31;8.85;;;4.40;;
15254;SDS011;7730;49.610;11.136;2023-05-16T11:51:59;10.25;;;4.57;;
15254;SDS011;7730;49.610;11.136;2023-05-16T11:54:26;9.60;;;4.40;;
15254;SDS011;7730;49.610;11.136;2023-05-16T11:56:53;8.05;;;4.00;;
15254;SDS011;7730;49.610;11.136;2023-05-16T11:59:20;7.25;;;3.92;;
15254;SDS011;7730;49.610;11.136;2023-05-16T12:01:49;9.23;;;3.95;;
15254;SDS011;7730;49.610;11.136;2023-05-16T12:04:17;8.93;;;4.32;;
15254;SDS011;7730;49.610;11.136;2023-05-16T12:06:49;10.20;;;4.05;;
15254;SDS011;7730;49.610;11.136;2023-05-16T12:09:23;7.80;;;4.18;;
15254;SDS011;7730;49.610;11.136;2023-05-16T12:11:50;8.50;;;4.10;;
15254;SDS011;7730;49.610;11.136;2023-05-16T12:14:18;7.25;;;4.25;;
15254;SDS011;7730;49.610;11.136;2023-05-16T12:16:45;8.77;;;4.30;;
15254;SDS011;7730;49.610;11.136;2023-05-16T12:19:14;8.27;;;4.25;;
15254;SDS011;7730;49.610;11.136;2023-05-16T12:21:41;9.82;;;4.30;;
15254;SDS011;7730;49.610;11.136;2023-05-16T12:24:09;8.75;;;4.30;;
15254;SDS011;7730;49.610;11.136;2023-05-16T12:26:37;7.95;;;4.20;;
15254;SDS011;7730;49.610;11.136;2023-05-16T12:29:05;8.05;;;4.20;;
15254;SDS011;7730;49.610;11.136;2023-05-16T12:31:34;7.68;;;3.85;;
15254;SDS011;7730;49.610;11.136;2023-05-16T12:34:02;7.60;;;4.10;;
15254;SDS011;7730;49.610;11.136;2023-05-16T12:36:32;7.20;;;3.67;;
15254;SDS011;7730;49.610;11.136;2023-05-16T12:39:00;8.07;;;4.22;;
15254;SDS011;7730;49.610;11.136;2023-05-16T12:41:28;7.60;;;3.88;;
15254;SDS011;7730;49.610;11.136;2023-05-16T12:44:04;9.40;;;3.70;;
15254;SDS011;7730;49.610;11.136;2023-05-16T12:46:32;10.45;;;3.72;;
15254;SDS011;7730;49.610;11.136;2023-05-16T12:49:00;8.23;;;3.80;;
15254;SDS011;7730;49.610;11.136;2023-05-16T12:51:29;9.93;;;4.32;;
15254;SDS011;7730;49.610;11.136;2023-05-16T12:54:05;9.15;;;4.25;;
15254;SDS011;7730;49.610;11.136;2023-05-16T12:56:32;9.23;;;4.35;;
15254;SDS011;7730;49.610;11.136;2023-05-16T12:58:59;8.15;;;4.32;;
15254;SDS011;7730;49.610;11.136;2023-05-16T13:01:26;9.13;;;4.30;;
15254;SDS011;7730;49.610;11.136;2023-05-16T13:03:53;10.15;;;4.28;;
15254;SDS011;7730;49.610;11.136;2023-05-16T13:06:21;7.57;;;3.88;;
15254;SDS011;7730;49.610;11.136;2023-05-16T13:08:48;8.73;;;4.00;;
15254;SDS011;7730;49.610;11.136;2023-05-16T13:11:16;8.10;;;3.83;;
15254;SDS011;7730;49.610;11.136;2023-05-16T13:13:43;8.27;;;3.78;;
15254;SDS011;7730;49.610;11.136;2023-05-16T13:16:10;9.57;;;3.80;;
15254;SDS011;7730;49.610;11.136;2023-05-16T13:18:37;6.75;;;3.83;;
15254;SDS011;7730;49.610;11.136;2023-05-16T13:21:05;7.47;;;3.65;;
15254;SDS011;7730;49.610;11.136;2023-05-16T13:23:32;9.88;;;4.15;;
15254;SDS011;7730;49.610;11.136;2023-05-16T13:25:59;8.18;;;3.90;;
15254;SDS011;7730;49.610;11.136;2023-05-16T13:28:27;7.10;;;3.38;;
15254;SDS011;7730;49.610;11.136;2023-05-16T13:30:54;7.10;;;3.40;;
15254;SDS011;7730;49.610;11.136;2023-05-16T13:33:21;6.63;;;3.30;;
15254;SDS011;7730;49.610;11.136;2023-05-16T13:35:48;6.00;;;3.03;;
15254;SDS011;7730;49.610;11.136;2023-05-16T13:38:16;5.13;;;2.95;;
15254;SDS011;7730;49.610;11.136;2023-05-16T13:40:43;4.70;;;2.75;;
15254;SDS011;7730;49.610;11.136;2023-05-16T13:43:10;5.45;;;2.80;;
15254;SDS011;7730;49.610;11.136;2023-05-16T13:45:40;5.10;;;2.70;;
15254;SDS011;7730;49.610;11.136;2023-05-16T13:48:08;5.95;;;2.80;;
15254;SDS011;7730;49.610;11.136;2023-05-16T13:50:35;5.22;;;2.50;;
15254;SDS011;7730;49.610;11.136;2023-05-16T13:53:03;5.30;;;2.80;;
15254;SDS011;7730;49.610;11.136;2023-05-16T13:55:30;8.13;;;2.63;;
15254;SDS011;7730;49.610;11.136;2023-05-16T13:57:57;5.60;;;2.40;;
15254;SDS011;7730;49.610;11.136;2023-05-16T14:00:25;7.13;;;2.60;;
15254;SDS011;7730;49.610;11.136;2023-05-16T14:02:53;5.53;;;2.60;;
15254;SDS011;7730;49.610;11.136;2023-05-16T14:05:20;3.50;;;2.28;;
15254;SDS011;7730;49.610;11.136;2023-05-16T14:07:47;5.90;;;2.65;;
15254;SDS011;7730;49.610;11.136;2023-05-16T14:10:14;4.32;;;2.40;;
15254;SDS011;7730;49.610;11.136;2023-05-16T14:12:41;5.63;;;2.90;;
15254;SDS011;7730;49.610;11.136;2023-05-16T14:15:08;4.93;;;2.80;;
15254;SDS011;7730;49.610;11.136;2023-05-16T14:17:35;5.40;;;2.42;;
15254;SDS011;7730;49.610;11.136;2023-05-16T14:20:04;5.85;;;2.70;;
15254;SDS011;7730;49.610;11.136;2023-05-16T14:22:34;6.78;;;2.60;;
15254;SDS011;7730;49.610;11.136;2023-05-16T14:25:01;3.33;;;2.25;;
15254;SDS011;7730;49.610;11.136;2023-05-16T14:27:28;4.93;;;2.50;;
15254;SDS011;7730;49.610;11.136;2023-05-16T14:29:55;5.13;;;2.60;;
15254;SDS011;7730;49.610;11.136;2023-05-16T14:32:23;4.75;;;2.40;;
15254;SDS011;7730;49.610;11.136;2023-05-16T14:34:50;5.18;;;2.58;;
15254;SDS011;7730;49.610;11.136;2023-05-16T14:37:19;5.65;;;2.60;;
15254;SDS011;7730;49.610;11.136;2023-05-16T14:39:46;4.13;;;2.40;;
15254;SDS011;7730;49.610;11.136;2023-05-16T14:42:14;5.95;;;2.60;;
15254;SDS011;7730;49.610;11.136;2023-05-16T14:44:41;5.90;;;2.53;;